createdAt,value
2022-09-18T00:01:36.965Z,13.50
2022-09-18T00:04:32.178Z,13.50
2022-09-18T00:07:01.340Z,13.50
2022-09-18T00:09:55.509Z,13.50
2022-09-18T00:12:39.466Z,13.40
2022-09-18T00:15:09.307Z,13.40
2022-09-18T00:17:38.522Z,13.40
2022-09-18T00:20:11.080Z,13.40
2022-09-18T00:22:40.811Z,13.40
2022-09-18T00:25:10.548Z,13.40
2022-09-18T00:27:39.598Z,13.40
2022-09-18T00:30:10.093Z,13.30
2022-09-18T00:32:39.111Z,13.30
2022-09-18T00:35:10.348Z,13.30
2022-09-18T00:37:39.359Z,13.30
2022-09-18T00:40:09.076Z,13.30
2022-09-18T00:42:38.139Z,13.30
2022-09-18T00:45:07.834Z,13.30
2022-09-18T00:47:40.183Z,13.30
2022-09-18T00:50:34.731Z,13.30
2022-09-18T00:53:11.712Z,13.30
2022-09-18T00:55:47.741Z,13.30
2022-09-18T00:58:28.094Z,13.30
2022-09-18T01:00:58.647Z,13.20
2022-09-18T01:03:27.659Z,13.20
2022-09-18T01:06:10.765Z,13.20
2022-09-18T01:08:55.481Z,13.20
2022-09-18T01:11:41.717Z,13.20
2022-09-18T01:14:24.744Z,13.20
2022-09-18T01:17:03.277Z,13.20
2022-09-18T01:20:01.047Z,13.20
2022-09-18T01:23:01.340Z,13.20
2022-09-18T01:25:39.165Z,13.20
2022-09-18T01:28:20.464Z,13.20
2022-09-18T01:30:51.787Z,13.20
2022-09-18T01:33:25.616Z,13.20
2022-09-18T01:35:58.728Z,13.20
2022-09-18T01:38:32.176Z,13.20
2022-09-18T01:41:06.388Z,13.20
2022-09-18T01:43:39.364Z,13.30
2022-09-18T01:46:12.868Z,13.30
2022-09-18T01:48:57.359Z,13.30
2022-09-18T01:51:33.252Z,13.30
2022-09-18T01:54:15.487Z,13.30
2022-09-18T01:57:20.410Z,13.40
2022-09-18T01:59:57.203Z,13.40
2022-09-18T02:02:31.471Z,13.40
2022-09-18T02:05:07.098Z,13.30
2022-09-18T02:07:43.871Z,13.40
2022-09-18T02:10:12.926Z,13.40
2022-09-18T02:12:45.517Z,13.40
2022-09-18T02:15:17.372Z,13.40
2022-09-18T02:18:30.884Z,13.40
2022-09-18T02:24:11.266Z,13.50
2022-09-18T02:26:41.726Z,13.50
2022-09-18T02:29:12.461Z,13.50
2022-09-18T02:31:43.616Z,13.50
2022-09-18T02:34:14.639Z,13.50
2022-09-18T02:37:02.064Z,13.50
2022-09-18T02:40:01.919Z,13.50
2022-09-18T02:42:41.506Z,13.50
2022-09-18T02:45:20.126Z,13.60
2022-09-18T02:48:21.553Z,13.60
2022-09-18T02:51:00.140Z,13.50
2022-09-18T02:53:34.354Z,13.60
2022-09-18T02:59:19.577Z,13.60
2022-09-18T03:01:56.051Z,13.60
2022-09-18T03:04:28.779Z,13.60
2022-09-18T03:07:33.528Z,13.60
2022-09-18T03:10:03.319Z,13.50
2022-09-18T03:12:32.516Z,13.50
2022-09-18T03:15:01.544Z,13.60
2022-09-18T03:17:35.201Z,13.60
2022-09-18T03:20:07.410Z,13.60
2022-09-18T03:22:36.982Z,13.60
2022-09-18T03:25:06.970Z,13.60
2022-09-18T03:27:42.312Z,13.60
2022-09-18T03:30:14.921Z,13.60
2022-09-18T03:32:43.946Z,13.60
2022-09-18T03:35:15.732Z,13.60
2022-09-18T03:37:44.824Z,13.60
2022-09-18T03:40:17.509Z,13.60
2022-09-18T03:42:46.609Z,13.60
2022-09-18T03:45:16.076Z,13.70
2022-09-18T03:47:46.813Z,13.70
2022-09-18T03:50:17.998Z,13.60
2022-09-18T03:52:51.259Z,13.70
2022-09-18T03:55:40.890Z,13.70
2022-09-18T03:58:28.181Z,13.70
2022-09-18T04:04:31.945Z,13.70
2022-09-18T04:10:43.707Z,13.70
2022-09-18T04:13:12.790Z,13.70
2022-09-18T04:15:42.006Z,13.70
2022-09-18T04:18:12.085Z,13.70
2022-09-18T04:23:41.288Z,13.70
2022-09-18T04:26:10.404Z,13.70
2022-09-18T04:28:47.134Z,13.70
2022-09-18T04:34:43.359Z,13.70
2022-09-18T04:37:21.220Z,13.70
2022-09-18T04:39:58.662Z,13.70
2022-09-18T04:42:27.681Z,13.70
2022-09-18T04:44:56.783Z,13.70
2022-09-18T04:47:25.769Z,13.70
2022-09-18T04:49:55.061Z,13.70
2022-09-18T04:52:24.169Z,13.70
2022-09-18T04:54:53.316Z,13.70
2022-09-18T04:57:24.687Z,13.70
2022-09-18T04:59:53.923Z,13.70
2022-09-18T05:02:23.400Z,13.70
2022-09-18T05:04:54.602Z,13.60
2022-09-18T05:07:31.559Z,13.60
2022-09-18T05:10:01.093Z,13.60
2022-09-18T05:12:34.001Z,13.60
2022-09-18T05:15:03.363Z,13.60
2022-09-18T05:17:33.011Z,13.60
2022-09-18T05:20:05.478Z,13.60
2022-09-18T05:22:40.011Z,13.60
2022-09-18T05:25:13.181Z,13.60
2022-09-18T05:31:29.130Z,13.60
2022-09-18T05:37:18.625Z,13.60
2022-09-18T05:43:17.882Z,13.60
2022-09-18T05:45:56.900Z,13.60
2022-09-18T05:48:37.291Z,13.50
2022-09-18T05:51:11.208Z,13.60
2022-09-18T05:53:42.176Z,13.60
2022-09-18T05:56:42.644Z,13.60
2022-09-18T05:59:20.076Z,13.60
2022-09-18T06:01:56.753Z,13.60
2022-09-18T06:04:55.102Z,13.60
2022-09-18T06:07:34.110Z,13.60
2022-09-18T06:10:11.719Z,13.60
2022-09-18T06:12:45.301Z,13.60
2022-09-18T06:15:16.343Z,13.60
2022-09-18T06:17:53.058Z,13.60
2022-09-18T06:20:26.410Z,13.50
2022-09-18T06:22:59.315Z,13.50
2022-09-18T06:25:37.872Z,13.50
2022-09-18T06:28:09.814Z,13.40
2022-09-18T06:30:42.659Z,13.50
2022-09-18T06:33:15.643Z,13.40
2022-09-18T06:35:50.792Z,13.40
2022-09-18T06:38:46.522Z,13.40
2022-09-18T06:41:15.645Z,13.40
2022-09-18T06:44:00.136Z,13.30
2022-09-18T06:46:38.147Z,13.30
2022-09-18T06:49:20.191Z,13.20
2022-09-18T06:51:49.615Z,13.20
2022-09-18T06:54:22.079Z,13.20
2022-09-18T06:56:53.597Z,13.20
2022-09-18T06:59:23.425Z,13.20
2022-09-18T07:01:56.026Z,13.20
2022-09-18T07:04:50.052Z,13.20
2022-09-18T07:07:20.498Z,13.20
2022-09-18T07:09:52.020Z,13.20
2022-09-18T07:12:28.308Z,13.30
2022-09-18T07:15:02.584Z,13.40
2022-09-18T07:17:33.429Z,13.50
2022-09-18T07:20:03.915Z,13.50
2022-09-18T07:22:43.802Z,13.70
2022-09-18T07:25:16.319Z,13.80
2022-09-18T07:27:46.264Z,13.90
2022-09-18T07:30:16.864Z,14.00
2022-09-18T07:32:48.020Z,14.10
2022-09-18T07:35:20.924Z,14.20
2022-09-18T07:37:50.298Z,14.40
2022-09-18T07:40:22.796Z,14.50
2022-09-18T07:43:12.278Z,14.60
2022-09-18T07:45:47.940Z,14.70
2022-09-18T07:48:19.614Z,14.80
2022-09-18T07:51:02.726Z,14.90
2022-09-18T07:53:37.595Z,15.00
2022-09-18T07:56:08.264Z,15.10
2022-09-18T07:58:37.998Z,15.20
2022-09-18T08:01:12.796Z,15.40
2022-09-18T08:03:52.885Z,15.50
2022-09-18T08:06:21.883Z,15.50
2022-09-18T08:09:07.237Z,15.60
2022-09-18T08:11:42.080Z,15.60
2022-09-18T08:14:35.044Z,15.70
2022-09-18T08:17:22.297Z,15.80
2022-09-18T08:20:11.948Z,15.90
2022-09-18T08:22:51.475Z,16.00
2022-09-18T08:25:50.352Z,16.10
2022-09-18T08:28:19.309Z,16.20
2022-09-18T08:30:59.014Z,16.30
2022-09-18T08:33:28.408Z,16.40
2022-09-18T08:38:56.159Z,16.50
2022-09-18T08:42:26.024Z,16.50
2022-09-18T08:45:05.604Z,16.60
2022-09-18T08:47:55.388Z,16.60
2022-09-18T08:50:29.274Z,16.70
2022-09-18T08:53:10.526Z,16.80
2022-09-18T08:55:51.687Z,16.80
2022-09-18T08:58:56.079Z,16.90
2022-09-18T09:01:36.030Z,17.00
2022-09-18T09:04:15.451Z,17.10
2022-09-18T09:06:59.820Z,17.20
2022-09-18T09:10:07.652Z,17.30
2022-09-18T09:12:49.650Z,17.40
2022-09-18T09:15:36.238Z,17.50
2022-09-18T09:18:20.620Z,17.60
2022-09-18T09:20:54.215Z,17.60
2022-09-18T09:23:44.629Z,17.70
2022-09-18T09:26:27.079Z,17.80
2022-09-18T09:29:24.151Z,17.80
2022-09-18T09:32:20.289Z,17.90
2022-09-18T09:35:31.485Z,18.00
2022-09-18T09:38:14.914Z,18.10
2022-09-18T09:40:50.587Z,18.30
2022-09-18T09:43:28.408Z,18.30
2022-09-18T09:46:00.623Z,18.40
2022-09-18T09:48:36.633Z,18.50
2022-09-18T09:51:14.293Z,18.50
2022-09-18T09:53:43.300Z,18.60
2022-09-18T09:56:20.958Z,18.70
2022-09-18T09:58:59.737Z,18.80
2022-09-18T10:01:36.291Z,18.80
2022-09-18T10:04:23.707Z,18.80
2022-09-18T10:07:14.690Z,18.80
2022-09-18T10:09:54.125Z,18.80
2022-09-18T10:12:30.528Z,18.90
2022-09-18T10:15:12.940Z,18.90
2022-09-18T10:17:43.350Z,18.90
2022-09-18T10:20:17.448Z,19.00
2022-09-18T10:22:48.858Z,19.10
2022-09-18T10:25:21.074Z,19.10
2022-09-18T10:27:49.935Z,19.10
2022-09-18T10:30:21.377Z,19.20
2022-09-18T10:32:54.390Z,19.20
2022-09-18T10:35:56.055Z,19.30
2022-09-18T10:38:34.271Z,19.40
2022-09-18T10:41:40.620Z,19.40
2022-09-18T10:44:23.348Z,19.60
2022-09-18T10:47:03.167Z,19.60
2022-09-18T10:49:36.156Z,19.70
2022-09-18T10:52:31.742Z,19.80
2022-09-18T10:55:14.836Z,19.80
2022-09-18T10:58:13.000Z,19.80
2022-09-18T11:00:53.107Z,19.80
2022-09-18T11:03:41.792Z,19.90
2022-09-18T11:06:20.770Z,19.90
2022-09-18T11:08:53.015Z,19.90
2022-09-18T11:11:26.973Z,19.90
2022-09-18T11:14:00.912Z,19.90
2022-09-18T11:16:40.293Z,19.90
2022-09-18T11:19:17.700Z,20.00
2022-09-18T11:21:50.284Z,19.90
2022-09-18T11:24:25.260Z,20.00
2022-09-18T11:27:01.786Z,19.90
2022-09-18T11:29:33.293Z,19.90
2022-09-18T11:32:11.822Z,19.90
2022-09-18T11:34:49.963Z,19.90
2022-09-18T11:37:29.941Z,19.90
2022-09-18T11:40:06.177Z,20.00
2022-09-18T11:42:42.238Z,20.00
2022-09-18T11:45:26.070Z,20.00
2022-09-18T11:47:58.647Z,20.10
2022-09-18T11:50:33.953Z,20.10
2022-09-18T11:53:10.888Z,20.10
2022-09-18T11:55:45.189Z,20.10
2022-09-18T11:58:18.819Z,20.00
2022-09-18T12:00:51.522Z,20.10
2022-09-18T12:03:25.698Z,20.10
2022-09-18T12:05:59.625Z,20.10
2022-09-18T12:08:41.080Z,20.00
2022-09-18T12:11:20.252Z,20.10
2022-09-18T12:13:59.799Z,20.10
2022-09-18T12:16:41.731Z,20.10
2022-09-18T12:19:17.975Z,20.10
2022-09-18T12:21:53.695Z,20.00
2022-09-18T12:24:23.081Z,19.90
2022-09-18T12:27:06.634Z,19.80
2022-09-18T12:29:59.532Z,19.80
2022-09-18T12:32:53.706Z,19.90
2022-09-18T12:35:31.174Z,19.90
2022-09-18T12:38:13.759Z,20.00
2022-09-18T12:41:00.730Z,20.00
2022-09-18T12:43:52.580Z,19.90
2022-09-18T12:46:41.097Z,19.70
2022-09-18T12:49:21.262Z,19.60
2022-09-18T12:51:57.158Z,19.60
2022-09-18T12:54:48.857Z,19.50
2022-09-18T12:57:28.921Z,19.40
2022-09-18T13:00:04.815Z,19.40
2022-09-18T13:02:46.216Z,19.40
2022-09-18T13:05:22.549Z,19.40
2022-09-18T13:07:56.422Z,19.40
2022-09-18T13:10:30.946Z,19.50
2022-09-18T13:13:05.294Z,19.60
2022-09-18T13:15:40.062Z,19.70
2022-09-18T13:18:20.723Z,19.70
2022-09-18T13:20:49.887Z,19.70
2022-09-18T13:23:23.779Z,19.70
2022-09-18T13:25:55.252Z,19.80
2022-09-18T13:28:24.720Z,19.80
2022-09-18T13:31:22.683Z,19.80
2022-09-18T13:33:54.377Z,19.60
2022-09-18T13:36:26.023Z,19.70
2022-09-18T13:38:56.707Z,19.70
2022-09-18T13:41:28.524Z,19.80
2022-09-18T13:43:59.424Z,19.90
2022-09-18T13:46:39.698Z,19.80
2022-09-18T13:49:21.052Z,19.80
2022-09-18T13:51:50.273Z,19.70
2022-09-18T13:54:29.300Z,19.70
2022-09-18T13:57:21.576Z,19.60
2022-09-18T13:59:54.309Z,19.60
2022-09-18T14:02:29.754Z,19.70
2022-09-18T14:05:30.842Z,19.60
2022-09-18T14:08:07.687Z,19.60
2022-09-18T14:11:14.006Z,19.60
2022-09-18T14:13:51.856Z,19.60
2022-09-18T14:16:33.449Z,19.70
2022-09-18T14:19:07.239Z,19.60
2022-09-18T14:21:41.721Z,19.70
2022-09-18T14:24:41.793Z,19.80
2022-09-18T14:27:41.059Z,19.80
2022-09-18T14:30:20.406Z,19.80
2022-09-18T14:33:03.597Z,19.80
2022-09-18T14:35:43.132Z,19.80
2022-09-18T14:38:25.749Z,19.70
2022-09-18T14:41:00.346Z,19.70
2022-09-18T14:43:29.339Z,19.80
2022-09-18T14:45:59.835Z,19.80
2022-09-18T14:48:31.868Z,19.90
2022-09-18T14:51:03.288Z,19.90
2022-09-18T14:53:32.547Z,19.90
2022-09-18T14:56:05.490Z,19.90
2022-09-18T14:58:37.774Z,19.80
2022-09-18T15:01:15.111Z,19.80
2022-09-18T15:03:48.324Z,19.80
2022-09-18T15:06:21.545Z,19.80
2022-09-18T15:08:53.070Z,19.70
2022-09-18T15:11:25.063Z,19.60
2022-09-18T15:13:56.499Z,19.60
2022-09-18T15:16:28.826Z,19.60
2022-09-18T15:18:58.806Z,19.60
2022-09-18T15:21:33.052Z,19.60
2022-09-18T15:24:04.219Z,19.60
2022-09-18T15:26:38.014Z,19.60
2022-09-18T15:29:14.117Z,19.50
2022-09-18T15:31:44.567Z,19.50
2022-09-18T15:34:17.324Z,19.40
2022-09-18T15:36:47.273Z,19.40
2022-09-18T15:39:31.490Z,19.40
2022-09-18T15:42:21.646Z,19.40
2022-09-18T15:45:18.428Z,19.50
2022-09-18T15:47:49.277Z,19.50
2022-09-18T15:50:37.301Z,19.60
2022-09-18T15:53:18.668Z,19.60
2022-09-18T15:55:53.416Z,19.60
2022-09-18T15:58:41.218Z,19.60
2022-09-18T16:01:18.408Z,19.60
2022-09-18T16:03:50.019Z,19.60
2022-09-18T16:06:27.106Z,19.60
2022-09-18T16:08:58.013Z,19.50
2022-09-18T16:11:48.144Z,19.50
2022-09-18T16:14:40.760Z,19.40
2022-09-18T16:17:53.937Z,19.40
2022-09-18T16:20:30.253Z,19.40
2022-09-18T16:23:24.231Z,19.30
2022-09-18T16:26:13.142Z,19.30
2022-09-18T16:28:44.177Z,19.20
2022-09-18T16:31:15.586Z,19.10
2022-09-18T16:33:48.662Z,19.10
2022-09-18T16:36:25.757Z,19.10
2022-09-18T16:38:55.185Z,19.10
2022-09-18T16:41:24.803Z,19.10
2022-09-18T16:43:53.972Z,19.00
2022-09-18T16:46:25.419Z,19.00
2022-09-18T16:48:54.672Z,18.90
2022-09-18T16:51:25.114Z,18.90
2022-09-18T16:53:54.206Z,18.90
2022-09-18T16:56:27.789Z,18.90
2022-09-18T16:58:58.469Z,18.80
2022-09-18T17:01:33.411Z,18.80
2022-09-18T17:04:18.553Z,18.80
2022-09-18T17:06:49.230Z,18.80
2022-09-18T17:09:18.482Z,18.80
2022-09-18T17:11:47.487Z,18.80
2022-09-18T17:14:23.923Z,18.80
2022-09-18T17:16:53.338Z,18.80
2022-09-18T17:19:22.630Z,18.80
2022-09-18T17:21:53.426Z,18.80
2022-09-18T17:24:26.227Z,18.80
2022-09-18T17:26:55.331Z,18.80
2022-09-18T17:29:24.550Z,18.70
2022-09-18T17:31:53.646Z,18.70
2022-09-18T17:34:23.116Z,18.60
2022-09-18T17:36:53.561Z,18.60
2022-09-18T17:39:22.621Z,18.60
2022-09-18T17:41:51.606Z,18.60
2022-09-18T17:44:24.349Z,18.60
2022-09-18T17:46:55.685Z,18.60
2022-09-18T17:49:25.576Z,18.60
2022-09-18T17:51:55.921Z,18.50
2022-09-18T17:54:25.127Z,18.50
2022-09-18T17:56:54.096Z,18.50
2022-09-18T17:59:23.081Z,18.50
2022-09-18T18:01:53.459Z,18.40
2022-09-18T18:04:22.561Z,18.40
2022-09-18T18:06:51.535Z,18.40
2022-09-18T18:09:22.666Z,18.30
2022-09-18T18:11:51.678Z,18.30
2022-09-18T18:14:20.688Z,18.30
2022-09-18T18:16:52.566Z,18.20
2022-09-18T18:19:21.848Z,18.20
2022-09-18T18:21:50.951Z,18.20
2022-09-18T18:24:21.584Z,18.10
2022-09-18T18:26:50.639Z,18.10
2022-09-18T18:29:21.624Z,18.10
2022-09-18T18:31:51.794Z,18.00
2022-09-18T18:34:22.460Z,18.00
2022-09-18T18:36:52.659Z,18.00
2022-09-18T18:39:23.110Z,17.90
2022-09-18T18:41:52.234Z,17.90
2022-09-18T18:44:21.262Z,17.90
2022-09-18T18:46:51.156Z,17.80
2022-09-18T18:49:20.396Z,17.70
2022-09-18T18:51:51.915Z,17.70
2022-09-18T18:54:23.393Z,17.70
2022-09-18T18:56:52.841Z,17.70
2022-09-18T18:59:23.083Z,17.60
2022-09-18T19:01:55.222Z,17.60
2022-09-18T19:04:24.765Z,17.50
2022-09-18T19:06:54.401Z,17.50
2022-09-18T19:09:29.508Z,17.40
2022-09-18T19:11:59.038Z,17.40
2022-09-18T19:14:31.676Z,17.30
2022-09-18T19:17:01.590Z,17.30
2022-09-18T19:19:31.044Z,17.30
2022-09-18T19:22:00.203Z,17.20
2022-09-18T19:24:31.378Z,17.20
2022-09-18T19:27:01.138Z,17.20
2022-09-18T19:29:30.654Z,17.10
2022-09-18T19:32:00.364Z,17.10
2022-09-18T19:34:29.487Z,17.10
2022-09-18T19:36:59.406Z,17.10
2022-09-18T19:39:28.516Z,17.10
2022-09-18T19:42:02.102Z,17.00
2022-09-18T19:44:34.746Z,17.00
2022-09-18T19:47:07.738Z,17.00
2022-09-18T19:49:38.777Z,17.00
2022-09-18T19:52:18.050Z,17.00
2022-09-18T19:54:48.997Z,17.00
2022-09-18T19:57:20.694Z,17.00
2022-09-18T19:59:52.750Z,17.00
2022-09-18T20:02:23.940Z,17.00
2022-09-18T20:04:53.161Z,17.00
2022-09-18T20:07:22.307Z,17.00
2022-09-18T20:09:51.594Z,16.90
2022-09-18T20:12:22.040Z,16.90
2022-09-18T20:14:51.166Z,16.90
2022-09-18T20:17:22.632Z,16.90
2022-09-18T20:19:52.242Z,16.90
2022-09-18T20:22:21.288Z,16.90
2022-09-18T20:24:51.746Z,16.80
2022-09-18T20:27:23.729Z,16.80
2022-09-18T20:29:53.066Z,16.80
2022-09-18T20:32:22.048Z,16.80
2022-09-18T20:34:51.210Z,16.80
2022-09-18T20:37:20.148Z,16.80
2022-09-18T20:39:49.392Z,16.90
2022-09-18T20:42:18.453Z,16.90
2022-09-18T20:44:48.930Z,16.90
2022-09-18T20:47:18.176Z,16.90
2022-09-18T20:49:50.908Z,16.90
2022-09-18T20:52:25.197Z,16.90
2022-09-18T20:54:54.863Z,16.90
2022-09-18T20:57:23.903Z,16.90
2022-09-18T20:59:54.305Z,16.90
2022-09-18T21:02:25.319Z,16.90
2022-09-18T21:04:54.585Z,16.90
2022-09-18T21:07:25.681Z,16.90
2022-09-18T21:09:58.150Z,16.90
2022-09-18T21:12:29.318Z,16.90
2022-09-18T21:15:02.285Z,16.90
2022-09-18T21:17:31.637Z,16.90
2022-09-18T21:20:01.165Z,17.00
2022-09-18T21:22:31.865Z,17.00
2022-09-18T21:25:01.076Z,17.00
2022-09-18T21:27:30.131Z,17.00
2022-09-18T21:30:16.590Z,17.00
2022-09-18T21:33:04.196Z,17.00
2022-09-18T21:35:42.545Z,17.00
2022-09-18T21:38:12.993Z,17.00
2022-09-18T21:40:42.235Z,17.00
2022-09-18T21:43:11.239Z,17.00
2022-09-18T21:45:41.623Z,17.00
2022-09-18T21:48:12.884Z,17.00
2022-09-18T21:50:42.694Z,16.90
2022-09-18T21:53:11.760Z,16.90
2022-09-18T21:55:40.853Z,16.90
2022-09-18T21:58:09.842Z,17.00
2022-09-18T22:00:38.827Z,16.90
2022-09-18T22:03:09.793Z,16.90
2022-09-18T22:05:39.406Z,16.90
2022-09-18T22:08:08.636Z,16.90
2022-09-18T22:10:37.570Z,16.90
2022-09-18T22:13:06.738Z,16.90
2022-09-18T22:15:35.871Z,16.90
2022-09-18T22:18:04.947Z,16.90
2022-09-18T22:20:38.276Z,16.90
2022-09-18T22:23:07.241Z,16.90
2022-09-18T22:25:36.520Z,16.90
2022-09-18T22:28:05.697Z,16.90
2022-09-18T22:30:34.692Z,16.90
2022-09-18T22:33:06.123Z,16.90
2022-09-18T22:35:34.992Z,16.90
2022-09-18T22:38:05.255Z,16.90
2022-09-18T22:40:34.382Z,16.90
2022-09-18T22:43:03.393Z,16.90
2022-09-18T22:45:32.423Z,16.90
2022-09-18T22:48:01.388Z,16.90
2022-09-18T22:50:30.539Z,16.90
2022-09-18T22:52:59.519Z,16.90
2022-09-18T22:55:30.031Z,16.90
2022-09-18T22:57:59.010Z,16.80
2022-09-18T23:00:27.983Z,16.90
2022-09-18T23:02:56.944Z,16.90
2022-09-18T23:05:26.029Z,16.80
2022-09-18T23:07:55.062Z,16.90
2022-09-18T23:10:24.047Z,16.80
2022-09-18T23:12:54.408Z,16.80
2022-09-18T23:15:23.489Z,16.80
2022-09-18T23:17:52.606Z,16.80
2022-09-18T23:20:21.682Z,16.90
2022-09-18T23:22:50.597Z,16.90
2022-09-18T23:25:19.561Z,16.90
2022-09-18T23:27:49.346Z,16.90
2022-09-18T23:30:21.246Z,16.90
2022-09-18T23:32:50.222Z,16.80
2022-09-18T23:35:19.239Z,16.90
2022-09-18T23:37:49.101Z,16.90
2022-09-18T23:40:18.332Z,16.90
2022-09-18T23:42:49.294Z,16.90
2022-09-18T23:45:19.798Z,16.80
2022-09-18T23:47:48.877Z,16.90
2022-09-18T23:50:19.600Z,16.80
2022-09-18T23:52:48.570Z,16.80
2022-09-18T23:55:18.295Z,16.80
2022-09-18T23:57:47.290Z,16.80
